| time (UTC) | temp C | wind direction | speed KPH | gust KPH | rain 1hr cm | rain 24hr cm | rain mn cm | humidity % | barometer mb |
| 20260906123307 | 25 | 174 | 8.0 | 8.0 | 0.03 | 0.03 | 0.03 | 79 | 983.6 |
| 20260906122807 | 26 | 170 | 6.4 | 6.4 | 0.03 | 0.03 | 0.03 | 75 | 983.7 |
| 20260906122307 | 26 | 150 | 9.7 | 9.7 | 0.03 | 0.03 | 0.03 | 77 | 983.8 |
| 20260906121807 | 26 | 136 | 9.7 | 9.7 | 0.03 | 0.03 | 0.03 | 76 | 983.8 |
| 20260906121306 | 25 | 134 | 12.9 | 12.9 | 0.03 | 0.03 | 0.03 | 78 | 983.9 |
| 20260906120806 | 25 | 112 | 14.5 | 14.5 | 0.00 | 0.00 | 0.00 | 79 | 984.1 |
| 20260906120307 | 23 | 72 | 16.1 | 16.1 | 0.00 | 0.00 | 0.00 | 83 | 984.4 |
| 20260906115807 | 23 | 51 | 8.0 | 8.0 | 0.00 | 0.00 | 0.00 | 85 | 984.5 |
| 20260906115307 | 23 | 126 | 1.6 | 1.6 | 0.00 | 0.00 | 0.00 | 85 | 984.3 |
| 20260906114806 | 23 | 131 | 9.7 | 9.7 | 0.00 | 0.00 | 0.00 | 85 | 984.2 |
| 20260906114307 | 23 | 120 | 9.7 | 9.7 | 0.00 | 0.00 | 0.00 | 85 | 984.1 |
| 20260906113807 | 23 | 99 | 9.7 | 9.7 | 0.00 | 0.00 | 0.00 | 86 | 984.3 |
| 20260906113308 | 23 | 95 | 6.4 | 6.4 | 0.00 | 0.00 | 0.00 | 86 | 984.3 |
| 20260906112807 | 23 | 75 | 9.7 | 9.7 | 0.00 | 0.00 | 0.00 | 86 | 984.4 |
| 20260906112307 | 23 | 65 | 4.8 | 4.8 | 0.00 | 0.00 | 0.00 | 86 | 984.5 |
| 20260906111807 | 23 | 72 | 9.7 | 9.7 | 0.00 | 0.00 | 0.00 | 86 | 984.4 |
| 20260906111308 | 23 | 360 | 3.2 | 3.2 | 0.00 | 0.00 | 0.00 | 87 | 984.4 |
| 20260906110807 | 23 | 29 | 11.3 | 11.3 | 0.00 | 0.00 | 0.00 | 87 | 984.4 |
| 20260906110307 | 23 | 20 | 6.4 | 6.4 | 0.00 | 0.00 | 0.00 | 88 | 984.4 |
| 20260906105806 | 23 | 22 | 9.7 | 9.7 | 0.00 | 0.00 | 0.00 | 88 | 984.6 |
| 20260906105307 | 23 | 18 | 14.5 | 14.5 | 0.00 | 0.00 | 0.00 | 89 | 984.5 |
| 20260906104808 | 23 | 46 | 17.7 | 17.7 | 0.00 | 0.00 | 0.00 | 89 | 984.1 |
| 20260906104307 | 23 | 7 | 6.4 | 6.4 | 0.00 | 0.00 | 0.00 | 89 | 984.0 |
| 20260906103806 | 23 | 70 | 8.0 | 8.0 | 0.00 | 0.00 | 0.00 | 89 | 983.9 |
| 20260906103306 | 24 | 87 | 11.3 | 11.3 | 0.00 | 0.00 | 0.00 | 89 | 983.9 |
| 20260906102808 | 24 | 49 | 14.5 | 14.5 | 0.00 | 0.00 | 0.00 | 89 | 983.9 |
| 20260906102307 | 24 | 25 | 6.4 | 6.4 | 0.00 | 0.00 | 0.00 | 88 | 983.9 |
| 20260906101807 | 24 | 68 | 20.9 | 20.9 | 0.00 | 0.00 | 0.00 | 88 | 983.7 |
| 20260906101307 | 24 | 49 | 12.9 | 12.9 | 0.00 | 0.00 | 0.00 | 87 | 983.9 |
| 20260906100806 | 25 | 59 | 14.5 | 14.5 | 0.00 | 0.00 | 0.00 | 85 | 983.8 |
| 20260906100307 | 25 | 99 | 14.5 | 14.5 | 0.00 | 0.00 | 0.00 | 85 | 983.4 |
| 20260906095807 | 25 | 88 | 14.5 | 14.5 | 0.00 | 0.00 | 0.00 | 85 | 983.4 |
| 20260906095308 | 25 | 110 | 11.3 | 11.3 | 0.00 | 0.00 | 0.00 | 86 | 983.5 |
| 20260906094808 | 25 | 114 | 11.3 | 11.3 | 0.00 | 0.00 | 0.00 | 86 | 983.3 |
| 20260906094308 | 24 | 122 | 9.7 | 9.7 | 0.00 | 0.00 | 0.00 | 87 | 983.3 |
| 20260906093807 | 24 | 82 | 14.5 | 14.5 | 0.00 | 0.00 | 0.00 | 87 | 983.4 |
| 20260906093307 | 24 | 103 | 11.3 | 11.3 | 0.00 | 0.00 | 0.00 | 88 | 983.2 |
| 20260906092806 | 24 | 106 | 11.3 | 11.3 | 0.00 | 0.00 | 0.00 | 89 | 983.4 |
| 20260906092307 | 24 | 104 | 17.7 | 17.7 | 0.00 | 0.00 | 0.00 | 89 | 983.1 |
| 20260906091807 | 24 | 74 | 9.7 | 9.7 | 0.00 | 0.00 | 0.00 | 89 | 983.5 |
| 20260906091307 | 24 | 109 | 12.9 | 12.9 | 0.00 | 0.00 | 0.00 | 89 | 983.3 |
| 20260906090807 | 25 | 75 | 11.3 | 11.3 | 0.00 | 0.00 | 0.00 | 88 | 983.4 |
| 20260906090307 | 25 | 56 | 8.0 | 8.0 | 0.00 | 0.00 | 0.00 | 86 | 983.3 |
| 20260906085807 | 25 | 96 | 11.3 | 11.3 | 0.00 | 0.00 | 0.00 | 86 | 982.9 |
| 20260906085307 | 24 | 113 | 16.1 | 16.1 | 0.00 | 0.00 | 0.00 | 88 | 983.1 |
| 20260906084807 | 25 | 65 | 14.5 | 14.5 | 0.00 | 0.00 | 0.00 | 87 | 983.0 |
| 20260906084307 | 26 | 28 | 11.3 | 11.3 | 0.00 | 0.00 | 0.00 | 82 | 982.9 |
| 20260906083807 | 26 | 115 | 3.2 | 3.2 | 0.00 | 0.00 | 0.00 | 81 | 982.6 |
| 20260906083306 | 26 | 155 | 9.7 | 9.7 | 0.00 | 0.00 | 0.00 | 81 | 982.5 |
| 20260906082807 | 26 | 112 | 8.0 | 8.0 | 0.00 | 0.00 | 0.00 | 81 | 982.6 |
| 20260906082306 | 26 | 98 | 9.7 | 9.7 | 0.00 | 0.00 | 0.00 | 81 | 982.6 |
| 20260906081807 | 26 | 83 | 16.1 | 16.1 | 0.00 | 0.00 | 0.00 | 79 | 982.5 |
| 20260906081308 | 26 | 179 | 9.7 | 9.7 | 0.00 | 0.00 | 0.00 | 79 | 982.5 |
| 20260906080806 | 27 | 177 | 8.0 | 8.0 | 0.00 | 0.00 | 0.00 | 79 | 982.4 |
| 20260906080307 | 27 | 184 | 6.4 | 6.4 | 0.00 | 0.00 | 0.00 | 79 | 982.4 |
| 20260906075807 | 27 | 176 | 8.0 | 8.0 | 0.00 | 0.00 | 0.00 | 79 | 982.6 |
| 20260906075308 | 27 | 178 | 9.7 | 9.7 | 0.00 | 0.00 | 0.00 | 78 | 982.6 |
| 20260906074807 | 27 | 176 | 8.0 | 8.0 | 0.00 | 0.00 | 0.00 | 77 | 982.6 |
| 20260906074307 | 27 | 184 | 6.4 | 6.4 | 0.00 | 0.00 | 0.00 | 77 | 982.7 |
| 20260906073808 | 27 | 173 | 6.4 | 6.4 | 0.00 | 0.00 | 0.00 | 77 | 982.6 |
| 20260906073307 | 27 | 172 | 4.8 | 4.8 | 0.00 | 0.00 | 0.00 | 77 | 982.8 |
| 20260906072807 | 27 | 169 | 6.4 | 6.4 | 0.00 | 0.00 | 0.00 | 77 | 982.8 |
| 20260906072307 | 27 | 158 | 9.7 | 9.7 | 0.00 | 0.00 | 0.00 | 77 | 982.7 |
| 20260906071807 | 27 | 160 | 8.0 | 8.0 | 0.00 | 0.00 | 0.00 | 76 | 982.7 |
| 20260906071306 | 27 | 181 | 4.8 | 4.8 | 0.00 | 0.00 | 0.00 | 76 | 982.7 |
| 20260906070806 | 27 | 172 | 6.4 | 6.4 | 0.00 | 0.00 | 0.00 | 76 | 982.5 |
| 20260906070306 | 28 | 181 | 8.0 | 8.0 | 0.00 | 0.00 | 0.00 | 75 | 982.5 |
| 20260906065806 | 28 | 188 | 8.0 | 8.0 | 0.00 | 0.00 | 0.00 | 75 | 982.5 |
| 20260906065306 | 27 | 190 | 4.8 | 4.8 | 0.00 | 0.00 | 0.00 | 75 | 982.5 |
| 20260906064807 | 27 | 179 | 6.4 | 6.4 | 0.00 | 0.00 | 0.00 | 75 | 982.6 |
| 20260906064307 | 28 | 174 | 6.4 | 6.4 | 0.00 | 0.00 | 0.00 | 74 | 982.5 |
| 20260906063807 | 28 | 180 | 4.8 | 4.8 | 0.00 | 0.00 | 0.00 | 73 | 982.5 |
| 20260906063307 | 28 | 229 | 8.0 | 8.0 | 0.00 | 0.00 | 0.00 | 73 | 982.5 |
| 20260906062806 | 28 | 236 | 6.4 | 6.4 | 0.00 | 0.00 | 0.00 | 72 | 982.5 |
| 20260906062307 | 28 | 234 | 9.7 | 9.7 | 0.00 | 0.00 | 0.00 | 73 | 982.4 |
| 20260906061808 | 28 | 221 | 11.3 | 11.3 | 0.00 | 0.00 | 0.00 | 73 | 982.6 |
| 20260906061307 | 28 | 208 | 9.7 | 9.7 | 0.00 | 0.00 | 0.00 | 73 | 982.5 |
| 20260906060807 | 28 | 194 | 8.0 | 8.0 | 0.00 | 0.00 | 0.00 | 74 | 982.5 |
| 20260906060306 | 27 | 184 | 6.4 | 6.4 | 0.00 | 0.00 | 0.00 | 75 | 982.4 |
| 20260906055807 | 27 | 176 | 6.4 | 6.4 | 0.00 | 0.00 | 0.00 | 75 | 982.5 |
| 20260906055308 | 28 | 179 | 8.0 | 8.0 | 0.00 | 0.00 | 0.00 | 74 | 982.6 |
| 20260906054806 | 28 | 179 | 8.0 | 8.0 | 0.00 | 0.00 | 0.00 | 74 | 982.6 |
| 20260906054307 | 28 | 182 | 6.4 | 6.4 | 0.00 | 0.00 | 0.00 | 74 | 982.5 |
| 20260906053807 | 28 | 196 | 6.4 | 6.4 | 0.00 | 0.00 | 0.00 | 74 | 982.7 |
| 20260906053308 | 28 | 174 | 9.7 | 9.7 | 0.00 | 0.00 | 0.00 | 74 | 982.9 |
| 20260906052806 | 28 | 165 | 6.4 | 6.4 | 0.00 | 0.00 | 0.00 | 74 | 982.8 |
| 20260906052307 | 28 | 152 | 8.0 | 8.0 | 0.00 | 0.00 | 0.00 | 73 | 982.9 |
| 20260906051807 | 28 | 159 | 8.0 | 8.0 | 0.00 | 0.00 | 0.00 | 72 | 982.9 |
| 20260906051307 | 28 | 153 | 11.3 | 11.3 | 0.00 | 0.00 | 0.00 | 72 | 983.0 |
| 20260906050807 | 28 | 150 | 6.4 | 6.4 | 0.00 | 0.00 | 0.00 | 71 | 983.2 |
| 20260906050306 | 28 | 150 | 4.8 | 4.8 | 0.00 | 0.00 | 0.00 | 71 | 983.1 |
| 20260906045807 | 28 | 146 | 6.4 | 6.4 | 0.00 | 0.00 | 0.00 | 70 | 983.1 |
| 20260906045307 | 29 | 166 | 6.4 | 6.4 | 0.00 | 0.00 | 0.00 | 69 | 983.0 |
| 20260906044807 | 29 | 152 | 9.7 | 9.7 | 0.00 | 0.00 | 0.00 | 69 | 983.1 |
| 20260906044307 | 28 | 152 | 6.4 | 6.4 | 0.00 | 0.00 | 0.00 | 70 | 983.2 |
| 20260906043808 | 31 | 175 | 12.9 | 12.9 | 0.00 | 0.00 | 0.00 | 63 | 983.0 |
| 20260906043307 | 31 | 31 | 4.8 | 4.8 | 0.00 | 0.00 | 0.00 | 64 | 983.0 |
| 20260906042807 | 31 | 20 | 6.4 | 6.4 | 0.00 | 0.00 | 0.00 | 64 | 983.0 |
| 20260906042307 | 31 | 28 | 4.8 | 4.8 | 0.00 | 0.00 | 0.00 | 62 | 983.1 |
| 20260906041807 | 31 | 11 | 4.8 | 4.8 | 0.00 | 0.00 | 0.00 | 61 | 983.0 |
| 20260906041307 | 32 | 0.0 | 0.0 | 0.00 | 0.00 | 0.00 | 59 | 983.1 | |
| 20260906040807 | 32 | 0.0 | 0.0 | 0.00 | 0.00 | 0.00 | 58 | 983.1 | |
| 20260906040307 | 32 | 0.0 | 0.0 | 0.00 | 0.00 | 0.00 | 58 | 983.1 | |
| 20260906035807 | 32 | 0.0 | 0.0 | 0.00 | 0.00 | 0.00 | 56 | 983.0 | |
| 20260906035307 | 32 | 0.0 | 0.0 | 0.00 | 0.00 | 0.00 | 57 | 983.0 | |
| 20260906034806 | 32 | 0.0 | 0.0 | 0.00 | 0.00 | 0.00 | 58 | 982.9 | |
| 20260906034306 | 32 | 0.0 | 0.0 | 0.00 | 0.00 | 0.00 | 59 | 983.1 | |
| 20260906033806 | 32 | 0.0 | 0.0 | 0.00 | 0.00 | 0.00 | 59 | 983.0 | |
| 20260906033307 | 32 | 340 | 1.6 | 1.6 | 0.00 | 0.00 | 0.00 | 59 | 983.1 |
| 20260906032806 | 32 | 326 | 3.2 | 3.2 | 0.00 | 0.00 | 0.00 | 58 | 983.1 |
| 20260906032307 | 32 | 322 | 3.2 | 3.2 | 0.00 | 0.00 | 0.00 | 59 | 983.1 |
| 20260906031806 | 32 | 322 | 3.2 | 3.2 | 0.00 | 0.00 | 0.00 | 60 | 983.1 |
| 20260906031307 | 32 | 322 | 3.2 | 3.2 | 0.00 | 0.00 | 0.00 | 60 | 982.9 |
| 20260906030806 | 32 | 320 | 4.8 | 4.8 | 0.00 | 0.00 | 0.00 | 59 | 982.8 |
| 20260906030307 | 32 | 320 | 4.8 | 4.8 | 0.00 | 0.00 | 0.00 | 60 | 982.7 |
| 20260906025807 | 32 | 332 | 3.2 | 3.2 | 0.00 | 0.00 | 0.00 | 60 | 982.7 |
| 20260906025306 | 32 | 335 | 3.2 | 3.2 | 0.00 | 0.00 | 0.00 | 60 | 982.7 |
| 20260906024806 | 32 | 4 | 1.6 | 1.6 | 0.00 | 0.00 | 0.00 | 59 | 982.7 |
| 20260906024306 | 32 | 4 | 3.2 | 3.2 | 0.00 | 0.00 | 0.00 | 59 | 982.7 |
| 20260906023807 | 32 | 2 | 4.8 | 4.8 | 0.00 | 0.00 | 0.00 | 59 | 982.7 |
| 20260906023306 | 32 | 4 | 3.2 | 3.2 | 0.00 | 0.00 | 0.00 | 58 | 982.5 |
| 20260906022807 | 32 | 9 | 3.2 | 3.2 | 0.00 | 0.00 | 0.00 | 58 | 982.3 |
| 20260906022307 | 32 | 9 | 3.2 | 3.2 | 0.00 | 0.00 | 0.00 | 58 | 982.4 |
| 20260906021807 | 32 | 9 | 1.6 | 1.6 | 0.00 | 0.00 | 0.00 | 58 | 982.4 |
| 20260906021307 | 32 | 10 | 1.6 | 1.6 | 0.00 | 0.00 | 0.00 | 58 | 982.2 |
| 20260906020806 | 32 | 9 | 3.2 | 3.2 | 0.00 | 0.00 | 0.00 | 58 | 982.3 |
| 20260906020306 | 32 | 10 | 3.2 | 3.2 | 0.00 | 0.00 | 0.00 | 58 | 982.2 |
| 20260906015807 | 32 | 18 | 3.2 | 3.2 | 0.00 | 0.00 | 0.00 | 57 | 982.2 |
| 20260906015306 | 32 | 18 | 3.2 | 3.2 | 0.00 | 0.00 | 0.00 | 58 | 982.1 |
| 20260906014806 | 32 | 19 | 3.2 | 3.2 | 0.00 | 0.00 | 0.00 | 58 | 982.1 |
| 20260906014305 | 32 | 18 | 1.6 | 1.6 | 0.00 | 0.00 | 0.00 | 58 | 982.2 |
| 20260906013807 | 32 | 23 | 3.2 | 3.2 | 0.00 | 0.00 | 0.00 | 58 | 982.2 |
| 20260906013306 | 32 | 23 | 3.2 | 3.2 | 0.00 | 0.00 | 0.00 | 58 | 982.3 |
| 20260906012807 | 32 | 17 | 3.2 | 3.2 | 0.00 | 0.00 | 0.00 | 58 | 982.2 |
| 20260906012306 | 32 | 354 | 4.8 | 4.8 | 0.00 | 0.00 | 0.00 | 58 | 982.3 |
| 20260906011806 | 32 | 346 | 3.2 | 3.2 | 0.00 | 0.00 | 0.00 | 58 | 982.1 |
| 20260906011306 | 32 | 346 | 3.2 | 3.2 | 0.00 | 0.00 | 0.00 | 58 | 982.0 |
| 20260906010806 | 32 | 316 | 3.2 | 3.2 | 0.00 | 0.00 | 0.00 | 57 | 981.9 |
| 20260906010307 | 32 | 291 | 3.2 | 3.2 | 0.00 | 0.00 | 0.00 | 58 | 981.7 |
| 20260906005807 | 32 | 301 | 3.2 | 3.2 | 0.00 | 0.00 | 0.00 | 58 | 981.7 |
| 20260906005307 | 32 | 301 | 3.2 | 3.2 | 0.00 | 0.00 | 0.00 | 58 | 981.7 |
| 20260906004807 | 32 | 23 | 1.6 | 1.6 | 0.00 | 0.00 | 0.00 | 57 | 981.7 |
| 20260906004307 | 32 | 37 | 1.6 | 1.6 | 0.00 | 0.00 | 0.00 | 56 | 981.7 |
| 20260906003806 | 32 | 35 | 1.6 | 1.6 | 0.00 | 0.00 | 0.00 | 57 | 981.6 |
| 20260906003307 | 32 | 25 | 3.2 | 3.2 | 0.00 | 0.00 | 0.00 | 57 | 981.7 |
| 20260906002806 | 32 | 30 | 3.2 | 3.2 | 0.00 | 0.00 | 0.00 | 57 | 981.6 |
| 20260906002306 | 33 | 17 | 1.6 | 1.6 | 0.00 | 0.00 | 0.00 | 56 | 981.8 |
| 20260906001806 | 33 | 9 | 1.6 | 1.6 | 0.00 | 0.00 | 0.00 | 56 | 981.8 |
| 20260906001307 | 33 | 358 | 6.4 | 6.4 | 0.00 | 0.00 | 0.00 | 55 | 981.7 |
| 20260906000806 | 33 | 352 | 8.0 | 8.0 | 0.00 | 0.00 | 0.00 | 55 | 981.7 |
| 20260906000306 | 33 | 342 | 6.4 | 6.4 | 0.00 | 0.00 | 0.00 | 54 | 981.9 |
| 20260905235807 | 33 | 6 | 6.4 | 6.4 | 0.00 | 0.00 | 0.00 | 52 | 981.8 |
| 20260905235307 | 34 | 27 | 6.4 | 6.4 | 0.00 | 0.00 | 0.00 | 52 | 981.9 |
| 20260905234806 | 34 | 13 | 6.4 | 6.4 | 0.00 | 0.00 | 0.00 | 51 | 981.9 |
| 20260905234307 | 34 | 19 | 4.8 | 4.8 | 0.00 | 0.00 | 0.00 | 50 | 981.8 |
| 20260905233806 | 35 | 15 | 3.2 | 3.2 | 0.00 | 0.00 | 0.00 | 50 | 981.9 |
| 20260905233307 | 35 | 44 | 4.8 | 4.8 | 0.00 | 0.00 | 0.00 | 49 | 981.8 |
| 20260905232806 | 35 | 56 | 4.8 | 4.8 | 0.00 | 0.00 | 0.00 | 49 | 981.8 |
| 20260905232306 | 35 | 54 | 6.4 | 6.4 | 0.00 | 0.00 | 0.00 | 50 | 981.9 |
| 20260905231806 | 35 | 30 | 6.4 | 6.4 | 0.00 | 0.00 | 0.00 | 49 | 981.8 |
| 20260905231307 | 35 | 12 | 8.0 | 8.0 | 0.00 | 0.00 | 0.00 | 49 | 981.7 |
| 20260905230806 | 35 | 30 | 8.0 | 8.0 | 0.00 | 0.00 | 0.00 | 48 | 981.8 |
| 20260905230306 | 35 | 25 | 8.0 | 8.0 | 0.00 | 0.00 | 0.00 | 48 | 981.8 |
| 20260905225807 | 35 | 15 | 3.2 | 3.2 | 0.00 | 0.00 | 0.00 | 48 | 981.9 |
| 20260905225307 | 35 | 69 | 4.8 | 4.8 | 0.00 | 0.00 | 0.00 | 48 | 981.7 |
| 20260905224807 | 35 | 350 | 8.0 | 8.0 | 0.00 | 0.00 | 0.00 | 47 | 981.7 |
| 20260905224306 | 35 | 11 | 3.2 | 3.2 | 0.00 | 0.00 | 0.00 | 47 | 981.6 |
| 20260905223807 | 35 | 60 | 4.8 | 4.8 | 0.00 | 0.00 | 0.00 | 46 | 981.6 |
| 20260905223306 | 35 | 71 | 4.8 | 4.8 | 0.00 | 0.00 | 0.00 | 45 | 981.6 |
| 20260905222807 | 35 | 67 | 1.6 | 1.6 | 0.00 | 0.00 | 0.00 | 45 | 981.7 |
| 20260905222307 | 35 | 50 | 3.2 | 3.2 | 0.00 | 0.00 | 0.00 | 46 | 981.6 |
| 20260905221806 | 35 | 63 | 8.0 | 8.0 | 0.00 | 0.00 | 0.00 | 46 | 981.6 |
| 20260905221307 | 35 | 60 | 3.2 | 3.2 | 0.00 | 0.00 | 0.00 | 46 | 981.7 |
| 20260905220806 | 35 | 23 | 4.8 | 4.8 | 0.00 | 0.00 | 0.00 | 46 | 981.7 |
| 20260905220306 | 36 | 59 | 11.3 | 11.3 | 0.00 | 0.00 | 0.00 | 46 | 981.6 |
| 20260905215807 | 36 | 21 | 8.0 | 8.0 | 0.00 | 0.00 | 0.00 | 45 | 981.7 |
| 20260905215307 | 36 | 100 | 4.8 | 4.8 | 0.00 | 0.00 | 0.00 | 46 | 981.7 |
| 20260905214807 | 35 | 0.0 | 0.0 | 0.00 | 0.00 | 0.00 | 46 | 981.7 | |
| 20260905214307 | 35 | 7 | 3.2 | 3.2 | 0.00 | 0.00 | 0.00 | 46 | 981.7 |
| 20260905213806 | 36 | 33 | 3.2 | 3.2 | 0.00 | 0.00 | 0.00 | 45 | 981.7 |
| 20260905213306 | 35 | 166 | 3.2 | 3.2 | 0.00 | 0.00 | 0.00 | 46 | 981.9 |
| 20260905212807 | 35 | 99 | 6.4 | 6.4 | 0.00 | 0.00 | 0.00 | 48 | 981.8 |
| 20260905212307 | 35 | 108 | 3.2 | 3.2 | 0.00 | 0.00 | 0.00 | 47 | 982.0 |
| 20260905211807 | 35 | 63 | 8.0 | 8.0 | 0.00 | 0.00 | 0.00 | 47 | 982.1 |
| 20260905211306 | 35 | 60 | 0.0 | 0.0 | 0.00 | 0.00 | 0.00 | 48 | 982.0 |
| 20260905210806 | 35 | 9 | 1.6 | 1.6 | 0.00 | 0.00 | 0.00 | 49 | 982.1 |
| 20260905210306 | 35 | 56 | 3.2 | 3.2 | 0.00 | 0.00 | 0.00 | 49 | 982.1 |
| 20260905205807 | 35 | 87 | 9.7 | 9.7 | 0.00 | 0.00 | 0.00 | 50 | 982.2 |
| 20260905205307 | 35 | 44 | 6.4 | 6.4 | 0.00 | 0.00 | 0.00 | 50 | 982.3 |
| 20260905204807 | 35 | 46 | 8.0 | 8.0 | 0.00 | 0.00 | 0.00 | 50 | 982.5 |
| 20260905204306 | 35 | 66 | 3.2 | 3.2 | 0.00 | 0.00 | 0.00 | 49 | 982.3 |
| 20260905203807 | 35 | 108 | 6.4 | 6.4 | 0.00 | 0.00 | 0.00 | 49 | 982.4 |
| 20260905203307 | 35 | 101 | 8.0 | 8.0 | 0.00 | 0.00 | 0.00 | 49 | 982.5 |
| 20260905202807 | 35 | 132 | 8.0 | 8.0 | 0.00 | 0.00 | 0.00 | 47 | 982.4 |
| 20260905202306 | 35 | 82 | 9.7 | 9.7 | 0.00 | 0.00 | 0.00 | 47 | 982.5 |
| 20260905201806 | 35 | 68 | 1.6 | 1.6 | 0.00 | 0.00 | 0.00 | 49 | 982.4 |
| 20260905201306 | 35 | 25 | 3.2 | 3.2 | 0.00 | 0.00 | 0.00 | 48 | 982.6 |
| 20260905200806 | 35 | 351 | 6.4 | 6.4 | 0.00 | 0.00 | 0.00 | 48 | 982.6 |
| 20260905200306 | 35 | 29 | 3.2 | 3.2 | 0.00 | 0.00 | 0.00 | 50 | 982.6 |
| 20260905195807 | 35 | 27 | 4.8 | 4.8 | 0.00 | 0.00 | 0.00 | 50 | 982.8 |
| 20260905195307 | 35 | 60 | 6.4 | 6.4 | 0.00 | 0.00 | 0.00 | 49 | 982.7 |
| 20260905194806 | 35 | 20 | 6.4 | 6.4 | 0.00 | 0.00 | 0.00 | 49 | 982.8 |
| 20260905194306 | 35 | 339 | 3.2 | 3.2 | 0.00 | 0.00 | 0.00 | 49 | 982.9 |
| 20260905193805 | 35 | 84 | 1.6 | 1.6 | 0.00 | 0.00 | 0.00 | 49 | 983.0 |
| 20260905193304 | 35 | 108 | 4.8 | 4.8 | 0.00 | 0.00 | 0.00 | 48 | 983.1 |
| 20260905192806 | 35 | 68 | 4.8 | 4.8 | 0.00 | 0.00 | 0.00 | 49 | 983.2 |
| 20260905192306 | 35 | 50 | 3.2 | 3.2 | 0.00 | 0.00 | 0.00 | 48 | 983.2 |
| 20260905191806 | 35 | 29 | 3.2 | 3.2 | 0.00 | 0.00 | 0.00 | 48 | 983.3 |
| 20260905191305 | 35 | 1 | 3.2 | 3.2 | 0.00 | 0.00 | 0.00 | 48 | 983.4 |
| 20260905190806 | 35 | 96 | 9.7 | 9.7 | 0.00 | 0.00 | 0.00 | 50 | 983.5 |
| 20260905190305 | 34 | 207 | 1.6 | 1.6 | 0.00 | 0.00 | 0.00 | 50 | 983.6 |
| 20260905185806 | 34 | 83 | 4.8 | 4.8 | 0.00 | 0.00 | 0.00 | 50 | 983.8 |
| 20260905185306 | 34 | 25 | 4.8 | 4.8 | 0.00 | 0.00 | 0.00 | 50 | 983.8 |
| 20260905184805 | 35 | 103 | 8.0 | 8.0 | 0.00 | 0.00 | 0.00 | 49 | 983.9 |
| 20260905184306 | 35 | 108 | 3.2 | 3.2 | 0.00 | 0.00 | 0.00 | 50 | 983.9 |
| 20260905183805 | 35 | 37 | 1.6 | 1.6 | 0.00 | 0.00 | 0.00 | 49 | 984.0 |
| 20260905183305 | 35 | 52 | 1.6 | 1.6 | 0.00 | 0.00 | 0.00 | 52 | 984.1 |
| 20260905182806 | 34 | 302 | 0.0 | 0.0 | 0.00 | 0.00 | 0.00 | 52 | 984.1 |
| 20260905182306 | 34 | 0.0 | 0.0 | 0.00 | 0.00 | 0.00 | 52 | 984.1 | |
| 20260905181806 | 34 | 352 | 3.2 | 3.2 | 0.00 | 0.00 | 0.00 | 52 | 984.1 |
| 20260905181305 | 34 | 48 | 3.2 | 3.2 | 0.00 | 0.00 | 0.00 | 51 | 984.1 |
| 20260905180806 | 34 | 87 | 6.4 | 6.4 | 0.00 | 0.00 | 0.00 | 53 | 984.0 |
| 20260905180305 | 33 | 93 | 3.2 | 3.2 | 0.00 | 0.00 | 0.00 | 53 | 984.2 |
| 20260905175806 | 33 | 94 | 9.7 | 9.7 | 0.00 | 0.00 | 0.00 | 53 | 984.3 |
| 20260905175306 | 33 | 343 | 3.2 | 3.2 | 0.00 | 0.00 | 0.00 | 52 | 984.2 |
| 20260905174805 | 34 | 34 | 11.3 | 11.3 | 0.00 | 0.00 | 0.00 | 52 | 984.3 |
| 20260905174305 | 34 | 109 | 9.7 | 9.7 | 0.00 | 0.00 | 0.00 | 52 | 984.3 |
| 20260905173805 | 34 | 112 | 12.9 | 12.9 | 0.00 | 0.00 | 0.00 | 51 | 984.3 |
| 20260905173305 | 34 | 122 | 1.6 | 1.6 | 0.00 | 0.00 | 0.00 | 52 | 984.3 |
| 20260905172805 | 33 | 74 | 4.8 | 4.8 | 0.00 | 0.00 | 0.00 | 53 | 984.5 |
| 20260905172305 | 33 | 38 | 6.4 | 6.4 | 0.00 | 0.00 | 0.00 | 55 | 984.5 |
| 20260905171804 | 33 | 49 | 8.0 | 8.0 | 0.00 | 0.00 | 0.00 | 54 | 984.6 |
| 20260905171307 | 33 | 98 | 4.8 | 4.8 | 0.00 | 0.00 | 0.00 | 54 | 984.6 |
| 20260905170805 | 33 | 66 | 4.8 | 4.8 | 0.00 | 0.00 | 0.00 | 58 | 984.7 |
| 20260905170306 | 33 | 6 | 4.8 | 4.8 | 0.00 | 0.00 | 0.00 | 57 | 984.8 |
| 20260905165806 | 33 | 41 | 3.2 | 3.2 | 0.00 | 0.00 | 0.00 | 58 | 985.0 |
| 20260905165306 | 33 | 251 | 1.6 | 1.6 | 0.00 | 0.00 | 0.00 | 57 | 985.0 |
| 20260905164805 | 33 | 360 | 11.3 | 11.3 | 0.00 | 0.00 | 0.00 | 58 | 985.2 |
| 20260905164306 | 33 | 21 | 3.2 | 3.2 | 0.00 | 0.00 | 0.00 | 59 | 985.2 |
| 20260905163805 | 33 | 353 | 3.2 | 3.2 | 0.00 | 0.00 | 0.00 | 59 | 985.1 |
| 20260905163306 | 33 | 22 | 1.6 | 1.6 | 0.00 | 0.00 | 0.00 | 60 | 985.3 |
| 20260905162805 | 32 | 327 | 1.6 | 1.6 | 0.00 | 0.00 | 0.00 | 60 | 985.3 |
| 20260905162306 | 32 | 321 | 1.6 | 1.6 | 0.00 | 0.00 | 0.00 | 60 | 985.3 |
| 20260905161805 | 32 | 39 | 1.6 | 1.6 | 0.00 | 0.00 | 0.00 | 62 | 985.4 |
| 20260905161305 | 32 | 77 | 8.0 | 8.0 | 0.00 | 0.00 | 0.00 | 63 | 985.6 |
| 20260905160805 | 32 | 315 | 3.2 | 3.2 | 0.00 | 0.00 | 0.00 | 64 | 985.7 |
| 20260905160304 | 31 | 3 | 6.4 | 6.4 | 0.00 | 0.00 | 0.00 | 64 | 985.7 |
| 20260905155806 | 31 | 304 | 6.4 | 6.4 | 0.00 | 0.00 | 0.00 | 62 | 985.7 |
| 20260905155306 | 31 | 340 | 6.4 | 6.4 | 0.00 | 0.00 | 0.00 | 65 | 985.6 |
| 20260905154804 | 31 | 43 | 1.6 | 1.6 | 0.00 | 0.00 | 0.00 | 66 | 985.6 |
| 20260905154305 | 31 | 6 | 1.6 | 1.6 | 0.00 | 0.00 | 0.00 | 65 | 985.6 |
| 20260905153805 | 31 | 6 | 3.2 | 3.2 | 0.00 | 0.00 | 0.00 | 67 | 985.7 |
| 20260905153306 | 31 | 333 | 1.6 | 1.6 | 0.00 | 0.00 | 0.00 | 69 | 985.6 |
| 20260905152806 | 30 | 344 | 4.8 | 4.8 | 0.00 | 0.00 | 0.00 | 68 | 985.6 |
| 20260905152306 | 30 | 328 | 0.0 | 0.0 | 0.00 | 0.00 | 0.00 | 71 | 985.7 |
| 20260905151805 | 30 | 321 | 1.6 | 1.6 | 0.00 | 0.00 | 0.00 | 72 | 985.9 |
| 20260905151305 | 30 | 347 | 4.8 | 4.8 | 0.00 | 0.00 | 0.00 | 72 | 985.7 |
| 20260905150804 | 29 | 302 | 1.6 | 1.6 | 0.00 | 0.00 | 0.00 | 73 | 985.6 |
| 20260905150305 | 29 | 293 | 4.8 | 4.8 | 0.00 | 0.00 | 0.00 | 75 | 985.7 |
| 20260905145806 | 29 | 4 | 3.2 | 3.2 | 0.00 | 0.00 | 0.00 | 75 | 985.6 |
| 20260905145306 | 29 | 330 | 3.2 | 3.2 | 0.00 | 0.00 | 0.00 | 76 | 985.5 |
| 20260905144805 | 29 | 326 | 1.6 | 1.6 | 0.00 | 0.00 | 0.00 | 76 | 985.7 |
| 20260905144304 | 28 | 328 | 3.2 | 3.2 | 0.00 | 0.00 | 0.00 | 76 | 985.7 |
| 20260905143806 | 28 | 331 | 3.2 | 3.2 | 0.00 | 0.00 | 0.00 | 77 | 985.6 |
| 20260905143305 | 29 | 0.0 | 0.0 | 0.00 | 0.00 | 0.00 | 76 | 985.6 | |
| 20260905142805 | 29 | 0.0 | 0.0 | 0.00 | 0.00 | 0.00 | 76 | 985.5 | |
| 20260905142306 | 28 | 0.0 | 0.0 | 0.00 | 0.00 | 0.00 | 76 | 985.7 | |
| 20260905141805 | 28 | 0.0 | 0.0 | 0.00 | 0.00 | 0.00 | 76 | 985.6 | |
| 20260905141305 | 28 | 0.0 | 0.0 | 0.00 | 0.00 | 0.00 | 76 | 985.7 | |
| 20260905140806 | 28 | 202 | 0.0 | 0.0 | 0.00 | 0.00 | 0.00 | 78 | 985.7 |
| 20260905140305 | 28 | 202 | 0.0 | 0.0 | 0.00 | 0.00 | 0.00 | 79 | 985.7 |
| 20260905135804 | 28 | 0.0 | 0.0 | 0.00 | 0.00 | 0.00 | 80 | 985.7 | |
| 20260905135307 | 27 | 0.0 | 0.0 | 0.00 | 0.00 | 0.00 | 81 | 985.7 | |
| 20260905134804 | 27 | 0.0 | 0.0 | 0.00 | 0.00 | 0.00 | 81 | 985.9 | |
| 20260905134305 | 27 | 0.0 | 0.0 | 0.00 | 0.00 | 0.00 | 82 | 985.8 | |
| 20260905133805 | 27 | 181 | 1.6 | 1.6 | 0.00 | 0.00 | 0.00 | 81 | 985.7 |
| 20260905133305 | 27 | 0.0 | 0.0 | 0.00 | 0.00 | 0.00 | 82 | 985.7 | |
| 20260905132805 | 26 | 0.0 | 0.0 | 0.00 | 0.00 | 0.00 | 83 | 985.7 | |
| 20260905132306 | 26 | 0.0 | 0.0 | 0.00 | 0.00 | 0.00 | 85 | 985.8 | |
| 20260905131805 | 26 | 59 | 4.8 | 4.8 | 0.00 | 0.00 | 0.00 | 85 | 985.8 |
| 20260905131305 | 25 | 52 | 3.2 | 3.2 | 0.00 | 0.00 | 0.00 | 87 | 985.9 |
| 20260905130804 | 25 | 50 | 3.2 | 3.2 | 0.00 | 0.00 | 0.00 | 88 | 985.8 |
| 20260905130306 | 25 | 73 | 3.2 | 3.2 | 0.00 | 0.00 | 0.00 | 89 | 985.9 |
| 20260905125805 | 24 | 30 | 4.8 | 4.8 | 0.00 | 0.00 | 0.00 | 90 | 985.9 |
| 20260905125306 | 24 | 36 | 4.8 | 4.8 | 0.00 | 0.00 | 0.00 | 90 | 985.7 |
| 20260905124806 | 24 | 14 | 4.8 | 4.8 | 0.00 | 0.00 | 0.00 | 89 | 985.9 |
| 20260905124305 | 24 | 8 | 6.4 | 6.4 | 0.00 | 0.00 | 0.00 | 89 | 985.7 |
| 20260905123804 | 25 | 5 | 4.8 | 4.8 | 0.00 | 0.00 | 0.00 | 87 | 985.7 |